Terminal Aerodrome Forecast
Issued by NWS

Home | Current Version | Previous Version | Graphics & Text | Print | Product List | Glossary On
Versions: 1 2 3 4 5 6 7 8 9 10 11 12 13 14 15 16 17 18 19 20 21 22 23 24 25 26
000
FTUS43 KBIS 090524
TAFMOT
TAF
KMOT 090524Z 0906/1006 30013KT P6SM SCT100 BKN150
      TEMPO 0906/0909 BKN020
     FM090900 27009KT P6SM SCT110
     FM092200 26014KT P6SM SCT250 WS020/30040KT
     FM100200 29014G23KT P6SM FEW250 WS020/32040KT
     FM100500 29013G21KT P6SM FEW200=

USA.gov is the U.S. government's official web portal to all federal, state and local government web resources and services.